AFR21QQ LFPG-GMTT
Flight info
| Callsign | AFR21QQ |
|---|---|
| Flight time | 2h 23m |
| Altitude | 37000 |
| Route | AGOPA DCT ARKIP DCT ARMAL DCT ARTAX DCT BEBIX DCT LMG DCT UVELI/N0443F390 DCT OSMOB DCT ARVID DCT PPN DCT NOLSA DCT ALEPO DCT VASUM N10 CJN L27 BLN DCT MGA DCT PIMOS N869 GALTO M143 LAMAD |
| Aircraft | A319/M-SDE3FGHIRWY/LB1 |
Departure
| Time | 2026-04-23 18:19 |
|---|---|
| Airport | Charles de Gaulle International Airport (LFPG) |
Arrival
| Time | 2026-04-23 20:42 |
|---|---|
| Airport | Tangier Ibn Battuta Airport (GMTT) |
| Time | Latitude | Longitude | Altitude | Speed | Heading |
|---|---|---|---|---|---|
| 2026-04-23 17:59 | 49.00127 | 2.58422 | 354 ft | 0 kts | 85° |
| 2026-04-23 18:09 | 49.00126 | 2.58401 | 361 ft | 4 kts | 88° |
| 2026-04-23 18:10 | 49.00127 | 2.58360 | 361 ft | 4 kts | 101° |
| 2026-04-23 18:10 | 49.00136 | 2.58324 | 360 ft | 4 kts | 136° |
| 2026-04-23 18:10 | 49.00150 | 2.58312 | 354 ft | 1 kts | 177° |
| 2026-04-23 18:10 | 49.00153 | 2.58312 | 354 ft | 0 kts | 177° |
| 2026-04-23 18:13 | 49.00151 | 2.58312 | 354 ft | 1 kts | 178° |
| 2026-04-23 18:13 | 49.00125 | 2.58313 | 354 ft | 7 kts | 177° |
| 2026-04-23 18:13 | 49.00071 | 2.58319 | 360 ft | 8 kts | 175° |
| 2026-04-23 18:13 | 49.00011 | 2.58273 | 359 ft | 17 kts | 252° |
| 2026-04-23 18:14 | 48.99999 | 2.58085 | 354 ft | 18 kts | 265° |
| 2026-04-23 18:14 | 48.99989 | 2.57902 | 362 ft | 17 kts | 265° |
| 2026-04-23 18:14 | 48.99980 | 2.57723 | 358 ft | 17 kts | 265° |
| 2026-04-23 18:14 | 48.99970 | 2.57548 | 354 ft | 16 kts | 265° |
| 2026-04-23 18:15 | 48.99961 | 2.57376 | 354 ft | 16 kts | 265° |
| 2026-04-23 18:15 | 48.99952 | 2.57211 | 354 ft | 16 kts | 264° |
| 2026-04-23 18:15 | 48.99943 | 2.57047 | 354 ft | 16 kts | 265° |
| 2026-04-23 18:15 | 48.99932 | 2.56883 | 354 ft | 16 kts | 265° |
| 2026-04-23 18:16 | 48.99924 | 2.56720 | 357 ft | 15 kts | 266° |
| 2026-04-23 18:16 | 48.99875 | 2.56595 | 354 ft | 15 kts | 192° |
| 2026-04-23 18:16 | 48.99796 | 2.56598 | 354 ft | 9 kts | 166° |
| 2026-04-23 18:17 | 48.99781 | 2.56602 | 354 ft | 6 kts | 169° |
| 2026-04-23 18:17 | 48.99732 | 2.56610 | 358 ft | 7 kts | 175° |
| 2026-04-23 18:17 | 48.99667 | 2.56624 | 358 ft | 11 kts | 156° |
| 2026-04-23 18:17 | 48.99647 | 2.56717 | 362 ft | 10 kts | 85° |
| 2026-04-23 18:18 | 48.99659 | 2.56926 | 360 ft | 46 kts | 85° |
| 2026-04-23 18:18 | 48.99703 | 2.57741 | 356 ft | 106 kts | 85° |
| 2026-04-23 18:18 | 48.99777 | 2.59121 | 356 ft | 154 kts | 85° |
| 2026-04-23 18:18 | 48.99859 | 2.60744 | 870 ft | 150 kts | 86° |
| 2026-04-23 18:19 | 48.99932 | 2.62336 | 1430 ft | 152 kts | 84° |
| 2026-04-23 18:19 | 49.00020 | 2.63946 | 2002 ft | 153 kts | 84° |
| 2026-04-23 18:19 | 49.00109 | 2.65561 | 2580 ft | 153 kts | 83° |
| 2026-04-23 18:19 | 49.00197 | 2.67181 | 3197 ft | 153 kts | 82° |
| 2026-04-23 18:20 | 49.00286 | 2.68805 | 3728 ft | 158 kts | 82° |
| 2026-04-23 18:20 | 49.00384 | 2.70591 | 3992 ft | 180 kts | 83° |
| 2026-04-23 18:20 | 49.00489 | 2.72608 | 4227 ft | 204 kts | 84° |
| 2026-04-23 18:20 | 49.00609 | 2.74889 | 4581 ft | 228 kts | 84° |
| 2026-04-23 18:21 | 49.00412 | 2.77383 | 5051 ft | 252 kts | 111° |
| 2026-04-23 18:21 | 48.99283 | 2.79485 | 5834 ft | 267 kts | 144° |
| 2026-04-23 18:21 | 48.97495 | 2.80328 | 6719 ft | 278 kts | 179° |
| 2026-04-23 18:21 | 48.95622 | 2.79529 | 7612 ft | 286 kts | 208° |
| 2026-04-23 18:22 | 48.93926 | 2.77904 | 8520 ft | 289 kts | 211° |
| 2026-04-23 18:22 | 48.92215 | 2.76263 | 9392 ft | 293 kts | 210° |
| 2026-04-23 18:22 | 48.91036 | 2.75153 | 9972 ft | 296 kts | 210° |
| 2026-04-23 18:22 | 48.89267 | 2.73504 | 10703 ft | 305 kts | 209° |
| 2026-04-23 18:23 | 48.87401 | 2.71788 | 11021 ft | 327 kts | 209° |
| 2026-04-23 18:23 | 48.83405 | 2.68137 | 12485 ft | 340 kts | 209° |
| 2026-04-23 18:24 | 48.79314 | 2.64407 | 14045 ft | 346 kts | 208° |
| 2026-04-23 18:24 | 48.77238 | 2.62528 | 14786 ft | 349 kts | 208° |
| 2026-04-23 18:24 | 48.75141 | 2.60623 | 15512 ft | 353 kts | 208° |
| 2026-04-23 18:25 | 48.70889 | 2.56770 | 16921 ft | 359 kts | 208° |
| 2026-04-23 18:25 | 48.68738 | 2.54826 | 17595 ft | 362 kts | 208° |
| 2026-04-23 18:25 | 48.66570 | 2.52868 | 18261 ft | 365 kts | 208° |
| 2026-04-23 18:25 | 48.64385 | 2.50888 | 18912 ft | 368 kts | 207° |
| 2026-04-23 18:26 | 48.62179 | 2.48901 | 19549 ft | 371 kts | 207° |
| 2026-04-23 18:26 | 48.59948 | 2.46898 | 20165 ft | 374 kts | 207° |
| 2026-04-23 18:26 | 48.57707 | 2.44875 | 20766 ft | 377 kts | 207° |
| 2026-04-23 18:26 | 48.55442 | 2.42833 | 21362 ft | 381 kts | 207° |
| 2026-04-23 18:27 | 48.53156 | 2.40783 | 21924 ft | 384 kts | 207° |
| 2026-04-23 18:27 | 48.50847 | 2.38717 | 22486 ft | 387 kts | 206° |
| 2026-04-23 18:27 | 48.48520 | 2.36632 | 23043 ft | 391 kts | 206° |
| 2026-04-23 18:27 | 48.46171 | 2.34533 | 23583 ft | 394 kts | 206° |
| 2026-04-23 18:28 | 48.43808 | 2.32416 | 24122 ft | 397 kts | 206° |
| 2026-04-23 18:28 | 48.41428 | 2.30288 | 24623 ft | 399 kts | 206° |
| 2026-04-23 18:28 | 48.39029 | 2.28146 | 25131 ft | 402 kts | 206° |
| 2026-04-23 18:28 | 48.36620 | 2.25996 | 25616 ft | 404 kts | 206° |
| 2026-04-23 18:29 | 48.34190 | 2.23847 | 26106 ft | 406 kts | 205° |
| 2026-04-23 18:29 | 48.31747 | 2.21675 | 26574 ft | 408 kts | 205° |
| 2026-04-23 18:29 | 48.29298 | 2.19496 | 27034 ft | 410 kts | 205° |
| 2026-04-23 18:29 | 48.26836 | 2.17313 | 27463 ft | 412 kts | 205° |
| 2026-04-23 18:30 | 48.24360 | 2.15123 | 27897 ft | 414 kts | 205° |
| 2026-04-23 18:30 | 48.21872 | 2.12916 | 28319 ft | 417 kts | 205° |
| 2026-04-23 18:30 | 48.19369 | 2.10709 | 28744 ft | 418 kts | 205° |
| 2026-04-23 18:30 | 48.16852 | 2.08497 | 29144 ft | 421 kts | 205° |
| 2026-04-23 18:31 | 48.14321 | 2.06260 | 29548 ft | 423 kts | 205° |
| 2026-04-23 18:31 | 48.11774 | 2.04055 | 29936 ft | 423 kts | 201° |
| 2026-04-23 18:31 | 48.09119 | 2.02387 | 30313 ft | 418 kts | 192° |
| 2026-04-23 18:31 | 48.06303 | 2.01407 | 30599 ft | 415 kts | 182° |
| 2026-04-23 18:32 | 48.03418 | 2.01208 | 30728 ft | 417 kts | 174° |
| 2026-04-23 18:32 | 48.00497 | 2.01415 | 30870 ft | 423 kts | 173° |
| 2026-04-23 18:32 | 47.97547 | 2.01617 | 31140 ft | 426 kts | 174° |
| 2026-04-23 18:32 | 47.94579 | 2.01793 | 31501 ft | 427 kts | 174° |
| 2026-04-23 18:33 | 47.91612 | 2.01962 | 31884 ft | 427 kts | 174° |
| 2026-04-23 18:33 | 47.88644 | 2.02140 | 32264 ft | 426 kts | 174° |
| 2026-04-23 18:33 | 47.85676 | 2.02319 | 32632 ft | 427 kts | 174° |
| 2026-04-23 18:33 | 47.82709 | 2.02499 | 32995 ft | 427 kts | 175° |
| 2026-04-23 18:34 | 47.79739 | 2.02676 | 33335 ft | 428 kts | 175° |
| 2026-04-23 18:34 | 47.76767 | 2.02851 | 33682 ft | 428 kts | 175° |
| 2026-04-23 18:34 | 47.73794 | 2.03030 | 34033 ft | 428 kts | 175° |
| 2026-04-23 18:34 | 47.70819 | 2.03208 | 34357 ft | 428 kts | 175° |
| 2026-04-23 18:35 | 47.67839 | 2.03380 | 34664 ft | 429 kts | 175° |
| 2026-04-23 18:35 | 47.64849 | 2.03562 | 34952 ft | 431 kts | 175° |
| 2026-04-23 18:35 | 47.61835 | 2.03729 | 35268 ft | 432 kts | 176° |
| 2026-04-23 18:35 | 47.58831 | 2.03890 | 35550 ft | 433 kts | 176° |
| 2026-04-23 18:36 | 47.55814 | 2.04066 | 35807 ft | 435 kts | 176° |
| 2026-04-23 18:36 | 47.52783 | 2.04239 | 36067 ft | 436 kts | 176° |
| 2026-04-23 18:36 | 47.49746 | 2.04405 | 36314 ft | 437 kts | 176° |
| 2026-04-23 18:36 | 47.46700 | 2.04584 | 36541 ft | 439 kts | 176° |
| 2026-04-23 18:37 | 47.43643 | 2.04765 | 36783 ft | 440 kts | 176° |
| 2026-04-23 18:37 | 47.40584 | 2.04935 | 37072 ft | 439 kts | 176° |
| 2026-04-23 18:37 | 47.37529 | 2.05107 | 37194 ft | 439 kts | 177° |
| 2026-04-23 18:38 | 47.31439 | 2.04666 | 37201 ft | 439 kts | 189° |
| 2026-04-23 18:38 | 47.25458 | 2.03113 | 37201 ft | 440 kts | 189° |
| 2026-04-23 18:39 | 47.19420 | 2.01599 | 37201 ft | 441 kts | 189° |
| 2026-04-23 18:39 | 47.13354 | 2.00064 | 37192 ft | 443 kts | 189° |
| 2026-04-23 18:40 | 47.07270 | 1.98528 | 37172 ft | 444 kts | 190° |
| 2026-04-23 18:40 | 47.01159 | 1.96999 | 37162 ft | 446 kts | 190° |
| 2026-04-23 18:41 | 46.95026 | 1.95458 | 37164 ft | 448 kts | 191° |
| 2026-04-23 18:41 | 46.88870 | 1.93908 | 37164 ft | 450 kts | 191° |
| 2026-04-23 18:42 | 46.82681 | 1.92369 | 37163 ft | 451 kts | 191° |
| 2026-04-23 18:42 | 46.76466 | 1.90839 | 37166 ft | 453 kts | 191° |
| 2026-04-23 18:43 | 46.70237 | 1.89287 | 37163 ft | 454 kts | 192° |
| 2026-04-23 18:43 | 46.63989 | 1.87733 | 37167 ft | 456 kts | 192° |
| 2026-04-23 18:44 | 46.57724 | 1.86182 | 37169 ft | 457 kts | 192° |
| 2026-04-23 18:44 | 46.51436 | 1.84642 | 37165 ft | 459 kts | 192° |
| 2026-04-23 18:45 | 46.45139 | 1.83092 | 37161 ft | 459 kts | 192° |
| 2026-04-23 18:45 | 46.38833 | 1.81541 | 37161 ft | 460 kts | 192° |
| 2026-04-23 18:46 | 46.32509 | 1.79979 | 37156 ft | 462 kts | 192° |
| 2026-04-23 18:46 | 46.26355 | 1.77594 | 37151 ft | 455 kts | 208° |
| 2026-04-23 18:47 | 46.21168 | 1.72653 | 37154 ft | 447 kts | 225° |
| 2026-04-23 18:47 | 46.16481 | 1.66755 | 37153 ft | 447 kts | 225° |
| 2026-04-23 18:48 | 46.11769 | 1.60872 | 37154 ft | 448 kts | 225° |
| 2026-04-23 18:48 | 46.07051 | 1.54990 | 37152 ft | 448 kts | 225° |
| 2026-04-23 18:49 | 46.02324 | 1.49144 | 37149 ft | 448 kts | 225° |
| 2026-04-23 18:49 | 45.97610 | 1.43285 | 37147 ft | 447 kts | 227° |
| 2026-04-23 18:50 | 45.94226 | 1.37783 | 37149 ft | 438 kts | 242° |
| 2026-04-23 18:50 | 45.90941 | 1.28791 | 37152 ft | 434 kts | 247° |
| 2026-04-23 18:51 | 45.88206 | 1.21067 | 37151 ft | 434 kts | 247° |
| 2026-04-23 18:51 | 45.85460 | 1.13349 | 37148 ft | 434 kts | 247° |
| 2026-04-23 18:52 | 45.82681 | 1.05732 | 37146 ft | 435 kts | 243° |
| 2026-04-23 18:52 | 45.78761 | 0.99058 | 37147 ft | 445 kts | 224° |
| 2026-04-23 18:53 | 45.73979 | 0.93416 | 37150 ft | 445 kts | 224° |
| 2026-04-23 18:53 | 45.69220 | 0.87737 | 37148 ft | 445 kts | 224° |
| 2026-04-23 18:54 | 45.64467 | 0.82076 | 37146 ft | 444 kts | 224° |
| 2026-04-23 18:54 | 45.59725 | 0.76428 | 37141 ft | 444 kts | 224° |
| 2026-04-23 18:55 | 45.54982 | 0.70790 | 37139 ft | 444 kts | 224° |
| 2026-04-23 18:55 | 45.50233 | 0.65175 | 37134 ft | 443 kts | 224° |
| 2026-04-23 18:56 | 45.46296 | 0.60502 | 37127 ft | 443 kts | 224° |
| 2026-04-23 18:56 | 45.40749 | 0.53962 | 37121 ft | 442 kts | 223° |
| 2026-04-23 18:57 | 45.36003 | 0.48385 | 37123 ft | 442 kts | 223° |
| 2026-04-23 18:57 | 45.31291 | 0.42856 | 37119 ft | 442 kts | 223° |
| 2026-04-23 18:58 | 45.26552 | 0.37300 | 37118 ft | 441 kts | 223° |
| 2026-04-23 18:58 | 45.21815 | 0.31760 | 37112 ft | 441 kts | 223° |
| 2026-04-23 18:59 | 45.17078 | 0.26239 | 37105 ft | 440 kts | 223° |
| 2026-04-23 18:59 | 45.12358 | 0.20721 | 37095 ft | 440 kts | 223° |
| 2026-04-23 19:00 | 45.07621 | 0.15223 | 37091 ft | 440 kts | 223° |
| 2026-04-23 19:00 | 45.02882 | 0.09731 | 37092 ft | 440 kts | 223° |
| 2026-04-23 19:01 | 44.98145 | 0.04258 | 37085 ft | 440 kts | 223° |
| 2026-04-23 19:01 | 44.93402 | -0.01203 | 37099 ft | 440 kts | 223° |
| 2026-04-23 19:02 | 44.89469 | -0.05742 | 37113 ft | 437 kts | 222° |
| 2026-04-23 19:02 | 44.84018 | -0.11995 | 37091 ft | 429 kts | 222° |
| 2026-04-23 19:03 | 44.79424 | -0.17258 | 37078 ft | 428 kts | 222° |
| 2026-04-23 19:03 | 44.74796 | -0.22545 | 37082 ft | 428 kts | 222° |
| 2026-04-23 19:04 | 44.70176 | -0.27833 | 37081 ft | 429 kts | 222° |
| 2026-04-23 19:04 | 44.65527 | -0.33083 | 37078 ft | 429 kts | 218° |
| 2026-04-23 19:05 | 44.60307 | -0.37248 | 37078 ft | 433 kts | 210° |
| 2026-04-23 19:05 | 44.54977 | -0.41157 | 37076 ft | 432 kts | 211° |
| 2026-04-23 19:06 | 44.50539 | -0.44394 | 37074 ft | 433 kts | 211° |
| 2026-04-23 19:06 | 44.45204 | -0.48304 | 37080 ft | 433 kts | 211° |
| 2026-04-23 19:07 | 44.39872 | -0.52218 | 37076 ft | 432 kts | 211° |
| 2026-04-23 19:07 | 44.34536 | -0.56110 | 37068 ft | 432 kts | 211° |
| 2026-04-23 19:08 | 44.29194 | -0.59992 | 37062 ft | 432 kts | 210° |
| 2026-04-23 19:08 | 44.23859 | -0.63867 | 37060 ft | 432 kts | 210° |
| 2026-04-23 19:09 | 44.18527 | -0.67753 | 37058 ft | 433 kts | 211° |
| 2026-04-23 19:09 | 44.13182 | -0.71617 | 37057 ft | 432 kts | 211° |
| 2026-04-23 19:10 | 44.07877 | -0.75459 | 37056 ft | 432 kts | 210° |
| 2026-04-23 19:10 | 44.02532 | -0.79303 | 37055 ft | 432 kts | 210° |
| 2026-04-23 19:11 | 43.97193 | -0.83135 | 37058 ft | 432 kts | 210° |
| 2026-04-23 19:11 | 43.91867 | -0.86976 | 37060 ft | 431 kts | 210° |
| 2026-04-23 19:12 | 43.86539 | -0.90794 | 37056 ft | 430 kts | 210° |
| 2026-04-23 19:12 | 43.81226 | -0.94603 | 37055 ft | 430 kts | 210° |
| 2026-04-23 19:13 | 43.75902 | -0.98386 | 37051 ft | 430 kts | 210° |
| 2026-04-23 19:13 | 43.70592 | -1.02175 | 37042 ft | 430 kts | 210° |
| 2026-04-23 19:14 | 43.65279 | -1.05953 | 37038 ft | 429 kts | 210° |
| 2026-04-23 19:14 | 43.59962 | -1.09721 | 37029 ft | 429 kts | 210° |
| 2026-04-23 19:15 | 43.54644 | -1.13481 | 37029 ft | 429 kts | 210° |
| 2026-04-23 19:15 | 43.49333 | -1.17238 | 37024 ft | 429 kts | 210° |
| 2026-04-23 19:16 | 43.44011 | -1.20987 | 37030 ft | 429 kts | 210° |
| 2026-04-23 19:16 | 43.38697 | -1.24735 | 37024 ft | 429 kts | 210° |
| 2026-04-23 19:17 | 43.30716 | -1.30339 | 37024 ft | 429 kts | 210° |
| 2026-04-23 19:17 | 43.25425 | -1.34042 | 37028 ft | 429 kts | 210° |
| 2026-04-23 19:18 | 43.20106 | -1.37756 | 37035 ft | 429 kts | 210° |
| 2026-04-23 19:18 | 43.14793 | -1.41463 | 37030 ft | 428 kts | 210° |
| 2026-04-23 19:19 | 43.06816 | -1.47020 | 37040 ft | 428 kts | 210° |
| 2026-04-23 19:20 | 42.98840 | -1.52558 | 37044 ft | 429 kts | 210° |
| 2026-04-23 19:20 | 42.93522 | -1.56248 | 37051 ft | 429 kts | 210° |
| 2026-04-23 19:21 | 42.85562 | -1.61779 | 37060 ft | 428 kts | 210° |
| 2026-04-23 19:22 | 42.80247 | -1.65457 | 37064 ft | 428 kts | 210° |
| 2026-04-23 19:22 | 42.72276 | -1.70948 | 37071 ft | 428 kts | 209° |
| 2026-04-23 19:23 | 42.66933 | -1.74536 | 37074 ft | 428 kts | 209° |
| 2026-04-23 19:24 | 42.58952 | -1.79897 | 37073 ft | 428 kts | 209° |
| 2026-04-23 19:24 | 42.50936 | -1.85265 | 37071 ft | 428 kts | 209° |
| 2026-04-23 19:25 | 42.40258 | -1.92398 | 37069 ft | 428 kts | 209° |
| 2026-04-23 19:26 | 42.32241 | -1.97752 | 37067 ft | 428 kts | 209° |
| 2026-04-23 19:27 | 42.18912 | -2.06579 | 37063 ft | 428 kts | 208° |
| 2026-04-23 19:28 | 42.08211 | -2.13628 | 37061 ft | 428 kts | 209° |
| 2026-04-23 19:29 | 42.00202 | -2.18911 | 37062 ft | 427 kts | 208° |
| 2026-04-23 19:30 | 41.92189 | -2.24176 | 37065 ft | 427 kts | 208° |
| 2026-04-23 19:31 | 41.84175 | -2.29426 | 37066 ft | 427 kts | 208° |
| 2026-04-23 19:31 | 41.78837 | -2.32911 | 37068 ft | 427 kts | 208° |
| 2026-04-23 19:32 | 41.73493 | -2.36384 | 37066 ft | 427 kts | 208° |
| 2026-04-23 19:32 | 41.68152 | -2.39860 | 37066 ft | 427 kts | 208° |
| 2026-04-23 19:33 | 41.62813 | -2.43322 | 37072 ft | 426 kts | 208° |
| 2026-04-23 19:33 | 41.54815 | -2.48512 | 37076 ft | 426 kts | 208° |
| 2026-04-23 19:34 | 41.49490 | -2.51950 | 37076 ft | 425 kts | 208° |
| 2026-04-23 19:35 | 41.41536 | -2.57067 | 37074 ft | 424 kts | 208° |
| 2026-04-23 19:35 | 41.36218 | -2.60476 | 37072 ft | 424 kts | 205° |
| 2026-04-23 19:36 | 41.30522 | -2.62566 | 37062 ft | 428 kts | 186° |
| 2026-04-23 19:36 | 41.24549 | -2.62290 | 37064 ft | 430 kts | 178° |
| 2026-04-23 19:37 | 41.18568 | -2.61748 | 37064 ft | 430 kts | 178° |
| 2026-04-23 19:37 | 41.12589 | -2.61201 | 37068 ft | 430 kts | 178° |
| 2026-04-23 19:38 | 41.06613 | -2.60674 | 37075 ft | 430 kts | 178° |
| 2026-04-23 19:38 | 41.00643 | -2.60145 | 37081 ft | 429 kts | 178° |
| 2026-04-23 19:39 | 40.94676 | -2.59617 | 37082 ft | 429 kts | 178° |
| 2026-04-23 19:39 | 40.88756 | -2.59071 | 37080 ft | 429 kts | 178° |
| 2026-04-23 19:40 | 40.82797 | -2.58538 | 37078 ft | 429 kts | 178° |
| 2026-04-23 19:40 | 40.76837 | -2.58004 | 37083 ft | 429 kts | 178° |
| 2026-04-23 19:41 | 40.70894 | -2.57465 | 37084 ft | 428 kts | 178° |
| 2026-04-23 19:41 | 40.64954 | -2.56931 | 37083 ft | 428 kts | 178° |
| 2026-04-23 19:42 | 40.59014 | -2.56401 | 37085 ft | 428 kts | 178° |
| 2026-04-23 19:42 | 40.53111 | -2.55870 | 37082 ft | 428 kts | 178° |
| 2026-04-23 19:43 | 40.47174 | -2.55345 | 37081 ft | 427 kts | 178° |
| 2026-04-23 19:43 | 40.41240 | -2.54829 | 37074 ft | 427 kts | 179° |
| 2026-04-23 19:44 | 40.35375 | -2.55494 | 37063 ft | 423 kts | 197° |
| 2026-04-23 19:44 | 40.29865 | -2.58135 | 37057 ft | 422 kts | 202° |
| 2026-04-23 19:45 | 40.24386 | -2.60900 | 37057 ft | 422 kts | 202° |
| 2026-04-23 19:45 | 40.18888 | -2.63648 | 37056 ft | 422 kts | 202° |
| 2026-04-23 19:46 | 40.13442 | -2.66381 | 37052 ft | 422 kts | 202° |
| 2026-04-23 19:46 | 40.07954 | -2.69122 | 37055 ft | 422 kts | 202° |
| 2026-04-23 19:47 | 40.03365 | -2.71410 | 37051 ft | 422 kts | 202° |
| 2026-04-23 19:47 | 39.96994 | -2.74577 | 37055 ft | 422 kts | 202° |
| 2026-04-23 19:48 | 39.91517 | -2.77314 | 37060 ft | 421 kts | 202° |
| 2026-04-23 19:48 | 39.86047 | -2.80037 | 37062 ft | 420 kts | 202° |
| 2026-04-23 19:49 | 39.80584 | -2.82738 | 37065 ft | 420 kts | 202° |
| 2026-04-23 19:49 | 39.75121 | -2.85436 | 37066 ft | 420 kts | 202° |
| 2026-04-23 19:50 | 39.69664 | -2.88131 | 37066 ft | 419 kts | 201° |
| 2026-04-23 19:50 | 39.64201 | -2.90825 | 37069 ft | 419 kts | 201° |
| 2026-04-23 19:51 | 39.58790 | -2.93492 | 37071 ft | 419 kts | 201° |
| 2026-04-23 19:51 | 39.53344 | -2.96170 | 37072 ft | 418 kts | 201° |
| 2026-04-23 19:52 | 39.48789 | -2.98414 | 37073 ft | 418 kts | 201° |
| 2026-04-23 19:52 | 39.43349 | -3.01075 | 37077 ft | 418 kts | 201° |
| 2026-04-23 19:53 | 39.37958 | -3.03727 | 37077 ft | 417 kts | 201° |
| 2026-04-23 19:53 | 39.32518 | -3.06369 | 37078 ft | 418 kts | 201° |
| 2026-04-23 19:54 | 39.27080 | -3.09023 | 37078 ft | 418 kts | 201° |
| 2026-04-23 19:54 | 39.21642 | -3.11660 | 37079 ft | 418 kts | 201° |
| 2026-04-23 19:55 | 39.16201 | -3.14294 | 37082 ft | 417 kts | 201° |
| 2026-04-23 19:55 | 39.10765 | -3.16945 | 37079 ft | 418 kts | 201° |
| 2026-04-23 19:56 | 39.05327 | -3.19568 | 37081 ft | 418 kts | 201° |
| 2026-04-23 19:56 | 38.99876 | -3.22200 | 37084 ft | 418 kts | 201° |
| 2026-04-23 19:57 | 38.94440 | -3.24808 | 37085 ft | 417 kts | 201° |
| 2026-04-23 19:57 | 38.89033 | -3.27404 | 37078 ft | 417 kts | 201° |
| 2026-04-23 19:58 | 38.83600 | -3.30022 | 37071 ft | 417 kts | 201° |
| 2026-04-23 19:58 | 38.78169 | -3.32628 | 37067 ft | 417 kts | 201° |
| 2026-04-23 19:59 | 38.72722 | -3.35230 | 36996 ft | 418 kts | 201° |
| 2026-04-23 19:59 | 38.67258 | -3.37843 | 37001 ft | 418 kts | 200° |
| 2026-04-23 20:00 | 38.61782 | -3.40448 | 37017 ft | 425 kts | 200° |
| 2026-04-23 20:00 | 38.56297 | -3.43067 | 37059 ft | 418 kts | 201° |
| 2026-04-23 20:01 | 38.50851 | -3.45649 | 37051 ft | 416 kts | 201° |
| 2026-04-23 20:01 | 38.45425 | -3.48226 | 37054 ft | 416 kts | 201° |
| 2026-04-23 20:02 | 38.39995 | -3.50800 | 37053 ft | 416 kts | 201° |
| 2026-04-23 20:02 | 38.34564 | -3.53364 | 37053 ft | 416 kts | 201° |
| 2026-04-23 20:03 | 38.29132 | -3.55938 | 37053 ft | 417 kts | 201° |
| 2026-04-23 20:03 | 38.23696 | -3.58510 | 37051 ft | 417 kts | 201° |
| 2026-04-23 20:04 | 38.18255 | -3.61060 | 37050 ft | 416 kts | 201° |
| 2026-04-23 20:04 | 38.12876 | -3.63780 | 37048 ft | 416 kts | 205° |
| 2026-04-23 20:05 | 38.07598 | -3.66804 | 37053 ft | 416 kts | 204° |
| 2026-04-23 20:05 | 38.02347 | -3.69775 | 37055 ft | 416 kts | 204° |
| 2026-04-23 20:06 | 37.97067 | -3.72768 | 37049 ft | 416 kts | 204° |
| 2026-04-23 20:06 | 37.91783 | -3.75739 | 37051 ft | 416 kts | 204° |
| 2026-04-23 20:07 | 37.86496 | -3.78723 | 37049 ft | 416 kts | 204° |
| 2026-04-23 20:07 | 37.81214 | -3.81694 | 37039 ft | 415 kts | 204° |
| 2026-04-23 20:08 | 37.75931 | -3.84662 | 37037 ft | 415 kts | 204° |
| 2026-04-23 20:08 | 37.70646 | -3.87620 | 37040 ft | 415 kts | 204° |
| 2026-04-23 20:09 | 37.65363 | -3.90579 | 37037 ft | 415 kts | 204° |
| 2026-04-23 20:09 | 37.60074 | -3.93531 | 37039 ft | 415 kts | 204° |
| 2026-04-23 20:10 | 37.55680 | -3.95982 | 37042 ft | 416 kts | 204° |
| 2026-04-23 20:10 | 37.49540 | -3.99413 | 37044 ft | 415 kts | 204° |
| 2026-04-23 20:11 | 37.44253 | -4.02354 | 37037 ft | 415 kts | 204° |
| 2026-04-23 20:11 | 37.38969 | -4.05288 | 37043 ft | 415 kts | 204° |
| 2026-04-23 20:12 | 37.33689 | -4.08210 | 37046 ft | 415 kts | 204° |
| 2026-04-23 20:12 | 37.28400 | -4.11136 | 37049 ft | 415 kts | 204° |
| 2026-04-23 20:13 | 37.23126 | -4.14060 | 37053 ft | 414 kts | 204° |
| 2026-04-23 20:13 | 37.17844 | -4.16979 | 37054 ft | 414 kts | 204° |
| 2026-04-23 20:14 | 37.12610 | -4.19862 | 37055 ft | 414 kts | 204° |
| 2026-04-23 20:14 | 37.07334 | -4.22757 | 37053 ft | 413 kts | 204° |
| 2026-04-23 20:15 | 37.02064 | -4.25658 | 37049 ft | 413 kts | 204° |
| 2026-04-23 20:15 | 36.96798 | -4.28551 | 37048 ft | 413 kts | 204° |
| 2026-04-23 20:16 | 36.91529 | -4.31435 | 37052 ft | 413 kts | 204° |
| 2026-04-23 20:16 | 36.86256 | -4.34317 | 37051 ft | 413 kts | 205° |
| 2026-04-23 20:17 | 36.81059 | -4.37270 | 37048 ft | 412 kts | 210° |
| 2026-04-23 20:17 | 36.76212 | -4.41103 | 37054 ft | 412 kts | 213° |
| 2026-04-23 20:18 | 36.71377 | -4.44955 | 37058 ft | 412 kts | 213° |
| 2026-04-23 20:18 | 36.66552 | -4.48789 | 37055 ft | 411 kts | 213° |
| 2026-04-23 20:18 | 36.64133 | -4.50700 | 36787 ft | 410 kts | 213° |
| 2026-04-23 20:19 | 36.61731 | -4.52615 | 36109 ft | 411 kts | 213° |
| 2026-04-23 20:19 | 36.59293 | -4.54537 | 35118 ft | 419 kts | 212° |
| 2026-04-23 20:19 | 36.56832 | -4.56489 | 34381 ft | 420 kts | 212° |
| 2026-04-23 20:19 | 36.54367 | -4.58444 | 33573 ft | 422 kts | 212° |
| 2026-04-23 20:20 | 36.51884 | -4.60411 | 32735 ft | 424 kts | 212° |
| 2026-04-23 20:20 | 36.49388 | -4.62385 | 31872 ft | 426 kts | 212° |
| 2026-04-23 20:20 | 36.46880 | -4.64354 | 31007 ft | 428 kts | 212° |
| 2026-04-23 20:20 | 36.44381 | -4.66330 | 30422 ft | 422 kts | 212° |
| 2026-04-23 20:21 | 36.41919 | -4.68277 | 29800 ft | 419 kts | 212° |
| 2026-04-23 20:21 | 36.39466 | -4.70202 | 29188 ft | 415 kts | 211° |
| 2026-04-23 20:21 | 36.37040 | -4.72109 | 28579 ft | 412 kts | 211° |
| 2026-04-23 20:21 | 36.34620 | -4.73998 | 27965 ft | 409 kts | 211° |
| 2026-04-23 20:22 | 36.32231 | -4.75878 | 27357 ft | 405 kts | 211° |
| 2026-04-23 20:22 | 36.29865 | -4.77734 | 26766 ft | 399 kts | 212° |
| 2026-04-23 20:22 | 36.27541 | -4.79555 | 26162 ft | 393 kts | 211° |
| 2026-04-23 20:22 | 36.25242 | -4.81353 | 25572 ft | 389 kts | 212° |
| 2026-04-23 20:23 | 36.22968 | -4.83144 | 24987 ft | 386 kts | 211° |
| 2026-04-23 20:23 | 36.20704 | -4.84909 | 24416 ft | 383 kts | 211° |
| 2026-04-23 20:23 | 36.18491 | -4.86639 | 23848 ft | 380 kts | 211° |
| 2026-04-23 20:23 | 36.16261 | -4.88382 | 23269 ft | 377 kts | 211° |
| 2026-04-23 20:24 | 36.14059 | -4.90104 | 22781 ft | 373 kts | 211° |
| 2026-04-23 20:24 | 36.11878 | -4.91833 | 22273 ft | 372 kts | 212° |
| 2026-04-23 20:24 | 36.09710 | -4.93558 | 21773 ft | 370 kts | 212° |
| 2026-04-23 20:24 | 36.07546 | -4.95272 | 21268 ft | 368 kts | 212° |
| 2026-04-23 20:25 | 36.05394 | -4.96972 | 20762 ft | 366 kts | 212° |
| 2026-04-23 20:25 | 36.03258 | -4.98663 | 20260 ft | 364 kts | 212° |
| 2026-04-23 20:25 | 36.01133 | -5.00345 | 19751 ft | 361 kts | 212° |
| 2026-04-23 20:25 | 35.99025 | -5.02012 | 19261 ft | 359 kts | 212° |
| 2026-04-23 20:26 | 35.96929 | -5.03665 | 18764 ft | 356 kts | 212° |
| 2026-04-23 20:26 | 35.94848 | -5.05304 | 18260 ft | 354 kts | 212° |
| 2026-04-23 20:26 | 35.92777 | -5.06933 | 17765 ft | 351 kts | 212° |
| 2026-04-23 20:26 | 35.90713 | -5.08550 | 17271 ft | 349 kts | 211° |
| 2026-04-23 20:27 | 35.88674 | -5.10144 | 16785 ft | 346 kts | 211° |
| 2026-04-23 20:27 | 35.86658 | -5.11743 | 16309 ft | 343 kts | 214° |
| 2026-04-23 20:27 | 35.84884 | -5.13684 | 15859 ft | 341 kts | 227° |
| 2026-04-23 20:27 | 35.83550 | -5.16097 | 15414 ft | 341 kts | 241° |
| 2026-04-23 20:28 | 35.82734 | -5.18843 | 14974 ft | 342 kts | 254° |
| 2026-04-23 20:28 | 35.82310 | -5.21718 | 14534 ft | 340 kts | 257° |
| 2026-04-23 20:28 | 35.81920 | -5.24587 | 14075 ft | 338 kts | 257° |
| 2026-04-23 20:28 | 35.81531 | -5.27434 | 13622 ft | 336 kts | 257° |
| 2026-04-23 20:29 | 35.81147 | -5.30271 | 13161 ft | 334 kts | 258° |
| 2026-04-23 20:29 | 35.80763 | -5.33088 | 12697 ft | 332 kts | 257° |
| 2026-04-23 20:29 | 35.80374 | -5.35887 | 12230 ft | 330 kts | 257° |
| 2026-04-23 20:29 | 35.79992 | -5.38665 | 11756 ft | 328 kts | 258° |
| 2026-04-23 20:30 | 35.79612 | -5.41396 | 11508 ft | 315 kts | 258° |
| 2026-04-23 20:30 | 35.78913 | -5.46392 | 11062 ft | 282 kts | 258° |
| 2026-04-23 20:30 | 35.78579 | -5.48761 | 10504 ft | 280 kts | 258° |
| 2026-04-23 20:31 | 35.78151 | -5.51068 | 10197 ft | 274 kts | 246° |
| 2026-04-23 20:31 | 35.77188 | -5.53079 | 9981 ft | 274 kts | 226° |
| 2026-04-23 20:31 | 35.75684 | -5.54488 | 9843 ft | 274 kts | 205° |
| 2026-04-23 20:31 | 35.73887 | -5.55076 | 9713 ft | 267 kts | 183° |
| 2026-04-23 20:32 | 35.72076 | -5.55186 | 9322 ft | 257 kts | 195° |
| 2026-04-23 20:32 | 35.70594 | -5.56255 | 8961 ft | 245 kts | 233° |
| 2026-04-23 20:32 | 35.69656 | -5.58037 | 8757 ft | 252 kts | 232° |
| 2026-04-23 20:32 | 35.68302 | -5.59364 | 8510 ft | 251 kts | 202° |
| 2026-04-23 20:33 | 35.66592 | -5.59714 | 8292 ft | 252 kts | 179° |
| 2026-04-23 20:33 | 35.64914 | -5.59172 | 8046 ft | 251 kts | 149° |
| 2026-04-23 20:33 | 35.63691 | -5.57674 | 7827 ft | 251 kts | 118° |
| 2026-04-23 20:33 | 35.63227 | -5.55633 | 7604 ft | 250 kts | 91° |
| 2026-04-23 20:34 | 35.63535 | -5.53549 | 7312 ft | 251 kts | 66° |
| 2026-04-23 20:34 | 35.64560 | -5.51830 | 6715 ft | 252 kts | 39° |
| 2026-04-23 20:34 | 35.66108 | -5.50871 | 6139 ft | 251 kts | 12° |
| 2026-04-23 20:34 | 35.67824 | -5.50847 | 5641 ft | 248 kts | 348° |
| 2026-04-23 20:35 | 35.69386 | -5.51734 | 5133 ft | 248 kts | 321° |
| 2026-04-23 20:35 | 35.70461 | -5.53363 | 4603 ft | 247 kts | 295° |
| 2026-04-23 20:35 | 35.70862 | -5.55407 | 4093 ft | 248 kts | 271° |
| 2026-04-23 20:35 | 35.70847 | -5.57498 | 3905 ft | 242 kts | 269° |
| 2026-04-23 20:36 | 35.70818 | -5.59578 | 3886 ft | 242 kts | 269° |
| 2026-04-23 20:36 | 35.70791 | -5.61643 | 3891 ft | 242 kts | 269° |
| 2026-04-23 20:36 | 35.70766 | -5.63721 | 3886 ft | 242 kts | 268° |
| 2026-04-23 20:36 | 35.70715 | -5.65702 | 3873 ft | 222 kts | 271° |
| 2026-04-23 20:37 | 35.70806 | -5.67536 | 3724 ft | 212 kts | 276° |
| 2026-04-23 20:37 | 35.70985 | -5.69316 | 3467 ft | 208 kts | 278° |
| 2026-04-23 20:37 | 35.71111 | -5.70478 | 3286 ft | 205 kts | 278° |
| 2026-04-23 20:37 | 35.71286 | -5.72212 | 3016 ft | 203 kts | 277° |
| 2026-04-23 20:38 | 35.71503 | -5.74484 | 2663 ft | 200 kts | 276° |
| 2026-04-23 20:38 | 35.71611 | -5.75628 | 2482 ft | 199 kts | 276° |
| 2026-04-23 20:38 | 35.71821 | -5.77838 | 2165 ft | 192 kts | 275° |
| 2026-04-23 20:38 | 35.71926 | -5.78929 | 1965 ft | 187 kts | 276° |
| 2026-04-23 20:39 | 35.72071 | -5.80474 | 1716 ft | 176 kts | 275° |
| 2026-04-23 20:39 | 35.72205 | -5.81923 | 1485 ft | 165 kts | 275° |
| 2026-04-23 20:39 | 35.72328 | -5.83270 | 1304 ft | 154 kts | 275° |
| 2026-04-23 20:39 | 35.72445 | -5.84548 | 1078 ft | 147 kts | 277° |
| 2026-04-23 20:40 | 35.72563 | -5.85771 | 875 ft | 143 kts | 278° |
| 2026-04-23 20:40 | 35.72687 | -5.86996 | 724 ft | 144 kts | 278° |
| 2026-04-23 20:40 | 35.72797 | -5.88200 | 512 ft | 140 kts | 277° |
| 2026-04-23 20:40 | 35.72906 | -5.89379 | 327 ft | 138 kts | 277° |
| 2026-04-23 20:41 | 35.73016 | -5.90559 | 145 ft | 139 kts | 278° |
| 2026-04-23 20:41 | 35.73121 | -5.91664 | 59 ft | 121 kts | 277° |
| 2026-04-23 20:41 | 35.73197 | -5.92486 | 60 ft | 72 kts | 276° |
| 2026-04-23 20:41 | 35.73245 | -5.92999 | 59 ft | 54 kts | 276° |
| 2026-04-23 20:42 | 35.73248 | -5.93279 | 59 ft | 21 kts | 235° |
| 2026-04-23 20:42 | 35.73145 | -5.93321 | 60 ft | 16 kts | 161° |
| 2026-04-23 20:42 | 35.73086 | -5.93216 | 56 ft | 16 kts | 98° |
| 2026-04-23 20:42 | 35.73074 | -5.93081 | 52 ft | 16 kts | 96° |
| 2026-04-23 20:43 | 35.73060 | -5.92944 | 54 ft | 16 kts | 97° |
| 2026-04-23 20:43 | 35.73047 | -5.92803 | 60 ft | 17 kts | 96° |
| 2026-04-23 20:43 | 35.73034 | -5.92661 | 58 ft | 17 kts | 96° |
| 2026-04-23 20:43 | 35.73020 | -5.92518 | 60 ft | 17 kts | 97° |
| 2026-04-23 20:44 | 35.73006 | -5.92371 | 56 ft | 17 kts | 96° |
| 2026-04-23 20:44 | 35.72993 | -5.92222 | 59 ft | 18 kts | 96° |
| 2026-04-23 20:44 | 35.72979 | -5.92073 | 59 ft | 18 kts | 96° |
| 2026-04-23 20:44 | 35.72965 | -5.91921 | 59 ft | 18 kts | 96° |
| 2026-04-23 20:45 | 35.72949 | -5.91770 | 60 ft | 18 kts | 103° |
| 2026-04-23 20:45 | 35.72846 | -5.91717 | 60 ft | 17 kts | 176° |
| 2026-04-23 20:45 | 35.72724 | -5.91706 | 60 ft | 18 kts | 175° |
| 2026-04-23 20:45 | 35.72603 | -5.91695 | 56 ft | 17 kts | 175° |
| 2026-04-23 20:46 | 35.72495 | -5.91679 | 60 ft | 15 kts | 160° |
| 2026-04-23 20:46 | 35.72429 | -5.91579 | 54 ft | 16 kts | 101° |
| 2026-04-23 20:46 | 35.72432 | -5.91437 | 60 ft | 17 kts | 85° |
| 2026-04-23 20:46 | 35.72442 | -5.91287 | 60 ft | 18 kts | 85° |
| 2026-04-23 20:47 | 35.72459 | -5.91187 | 60 ft | 9 kts | 30° |
| 2026-04-23 20:47 | 35.72518 | -5.91192 | 60 ft | 6 kts | 356° |
| 2026-04-23 20:47 | 35.72532 | -5.91193 | 60 ft | 0 kts | 355° |